ADDS METAR Data INFO
IDs: Format: Raw Decoded Include TAF

Data at: 0352 UTC 18 Oct 2017

KFEP 180335Z AUTO 19010KT 10SM CLR 12/06 A3013 RMK AO2 T01150056
KFEP 180315Z AUTO 19008KT 10SM CLR 11/06 A3013 RMK AO2 T01120055
KFEP 180255Z AUTO 19008KT 10SM CLR 10/05 A3013 RMK AO2 T01040051
KFEP 180235Z AUTO 19008KT 10SM CLR 10/05 A3013 RMK AO2 T01030050
KFEP 180215Z AUTO 18007KT 10SM CLR 11/05 A3012 RMK AO2 T01120048
KFEP 180155Z AUTO 19008KT 10SM CLR 12/05 A3012 RMK AO2 T01200048
KFEP 180135Z AUTO 19006KT 10SM CLR 12/05 A3012 RMK AO2 T01160045
KFEP 180115Z AUTO 20006KT 10SM CLR 11/05 A3012 RMK AO2 T01120045
KFEP 180055Z AUTO 19007KT 10SM CLR 12/05 A3012 RMK AO2 T01170046
KFEP 180035Z AUTO 19007KT 10SM CLR 12/05 A3012 RMK AO2 T01150048
KFEP 180015Z AUTO 19006KT 10SM CLR 11/05 A3011 RMK AO2 T01130045
KFEP 172355Z AUTO 20005KT 10SM CLR 13/04 A3011 RMK AO2 T01320043 10212 20132
KFEP 172335Z AUTO 21005KT 10SM CLR 15/05 A3011 RMK AO2 T01450045
KFEP 172315Z AUTO 20006KT 10SM CLR 15/05 A3011 RMK AO2 T01540046
KFEP 172255Z AUTO 21007KT 10SM CLR 17/04 A3011 RMK AO2 T01740043
KFEP 172235Z AUTO 22011KT 10SM CLR 19/04 A3011 RMK AO2 T01880038
KFEP 172215Z AUTO 22012G16KT 10SM CLR 20/04 A3011 RMK AO2 T01960040
KFEP 172155Z AUTO 22013G18KT 10SM CLR 20/05 A3011 RMK AO2 T02010046
KFEP 172135Z AUTO 23011KT 10SM CLR 21/05 A3011 RMK AO2 T02050054
KFEP 172115Z AUTO 21010G18KT 10SM CLR 21/06 A3011 RMK AO2 T02070058
KFEP 172055Z AUTO 22013G18KT 10SM CLR 21/06 A3011 RMK AO2 T02070062
KFEP 172035Z AUTO 23011G16KT 10SM CLR 21/07 A3011 RMK AO2 T02080065
KFEP 172015Z AUTO 22010G19KT 10SM CLR 21/06 A3012 RMK AO2 T02100063
KFEP 171955Z AUTO 23012G16KT 10SM CLR 21/06 A3012 RMK AO2 T02110062
KFEP 171935Z AUTO 22014G20KT 10SM CLR 21/07 A3012 RMK AO2 T02090065
KFEP 171915Z AUTO 22012G19KT 10SM CLR 21/06 A3013 RMK AO2 T02060063
KFEP 171855Z AUTO 22011G21KT 10SM CLR 21/06 A3013 RMK AO2 T02090060
KFEP 171835Z AUTO 23010G23KT 10SM CLR 20/06 A3014 RMK AO2 T02040060
KFEP 171815Z AUTO 22015G21KT 10SM CLR 20/06 A3015 RMK AO2 T02020060
KFEP 171755Z AUTO 24014G25KT 10SM CLR 20/06 A3015 RMK AO2 T01970056 10201 20082
KFEP 171735Z AUTO 23014G21KT 10SM CLR 20/06 A3016 RMK AO2 T01980060
KFEP 171715Z AUTO 22013G21KT 10SM CLR 19/06 A3016 RMK AO2 T01920059
KFEP 171655Z AUTO 24013G19KT 10SM CLR 19/06 A3017 RMK AO2 T01870056
KFEP 171635Z AUTO 24014G20KT 10SM CLR 18/06 A3017 RMK AO2 T01820060
KFEP 171615Z AUTO 24014G18KT 10SM CLR 18/06 A3017 RMK AO2 T01760057
KFEP 171555Z AUTO 24009G18KT 10SM CLR 17/06 A3018 RMK AO2 T01680057
KFEP 171535Z AUTO 24013KT 10SM CLR 16/06 A3018 RMK AO2 T01580057
KFEP 171515Z AUTO 24008KT 10SM CLR 15/06 A3018 RMK AO2 T01450056
KFEP 171455Z AUTO 24013G18KT 10SM CLR 13/05 A3018 RMK AO2 T01340051
KFEP 171435Z AUTO 24012G19KT 10SM CLR 13/05 A3019 RMK AO2 T01280049
KFEP 171415Z AUTO 22013G17KT 10SM CLR 12/05 A3019 RMK AO2 T01200051
KFEP 171355Z AUTO 22013KT 10SM CLR 11/05 A3019 RMK AO2 T01090048
KFEP 171335Z AUTO 21013KT 10SM CLR 10/05 A3017 RMK AO2 T00990045
KFEP 171315Z AUTO 22012G17KT 10SM CLR 09/04 A3018 RMK AO2 T00910042
KFEP 171255Z AUTO 21013G18KT 10SM CLR 09/04 A3017 RMK AO2 T00850040
KFEP 171235Z AUTO 21013KT 10SM CLR 08/04 A3017 RMK AO2 T00820036
KFEP 171215Z AUTO 21012KT 10SM CLR 08/04 A3017 RMK AO2 T00830035
KFEP 171155Z AUTO 22013KT 10SM CLR 09/04 A3017 RMK AO2 T00850036 10100 20085
KFEP 171135Z AUTO 22014KT 10SM CLR 09/04 A3017 RMK AO2 T00900035
KFEP 171115Z AUTO 21013KT 10SM CLR 09/04 A3017 RMK AO2 T00890035
KFEP 171055Z AUTO 22013G18KT 10SM CLR 09/03 A3017 RMK AO2 T00910033
KFEP 171035Z AUTO 21013KT 10SM CLR 09/03 A3017 RMK AO2 T00900032
KFEP 171015Z AUTO 21012KT 10SM CLR 09/03 A3017 RMK AO2 T00870031
KFEP 171000Z AUTO 21012KT 10SM CLR 09/03 A3017 RMK AO2 T00880031
KFEP 170935Z AUTO 21010KT 10SM CLR 09/03 A3017 RMK AO2 T00870030
KFEP 170915Z AUTO 22010KT 10SM CLR 09/03 A3017 RMK AO2 T00900030
KFEP 170855Z AUTO 22010KT 10SM CLR 09/03 A3017 RMK AO2 T00910029
KFEP 170835Z AUTO 22012KT 10SM CLR 10/03 A3016 RMK AO2 T00950028
KFEP 170815Z AUTO 22010KT 10SM CLR 10/03 A3017 RMK AO2 T00950027
KFEP 170755Z AUTO 21011KT 10SM CLR 10/03 A3017 RMK AO2 T00960027
KFEP 170735Z AUTO 21011G15KT 10SM CLR 09/03 A3017 RMK AO2 T00900027
KFEP 170715Z AUTO 22011KT 10SM CLR 09/03 A3017 RMK AO2 T00910027
KFEP 170655Z AUTO 22010KT 10SM CLR 10/03 A3018 RMK AO2 T00980026
KFEP 170635Z AUTO 21010KT 10SM CLR 10/03 A3018 RMK AO2 T00980027
KFEP 170615Z AUTO 21011KT 10SM CLR 10/03 A3018 RMK AO2 T01000026
KFEP 170555Z AUTO 21009KT 10SM CLR 10/03 A3018 RMK AO2 T00990026 10106 20075 401640031
KFEP 170535Z AUTO 21008KT 10SM CLR 10/03 A3018 RMK AO2 T00970026
KFEP 170515Z AUTO 21009KT 10SM CLR 10/03 A3019 RMK AO2 T00970026
KFEP 170455Z AUTO 21009G14KT 10SM CLR 10/03 A3019 RMK AO2 T01000026
KFEP 170435Z AUTO 21010KT 10SM CLR 10/03 A3019 RMK AO2 T01040025
KFEP 170415Z AUTO 21010KT 10SM CLR 11/03 A3019 RMK AO2 T01060025
KFEP 170355Z AUTO 21007KT 10SM CLR 11/02 A3019 RMK AO2 T01050023
KFEP 170335Z AUTO 21009KT 10SM CLR 10/03 A3020 RMK AO2 T01040025
KFEP 170315Z AUTO 21009KT 10SM CLR 10/03 A3020 RMK AO2 T00980027
KFEP 170255Z AUTO 20008KT 10SM CLR 09/03 A3020 RMK AO2 T00900031
KFEP 170235Z AUTO 19008KT 10SM CLR 08/03 A3020 RMK AO2 T00820032
KFEP 170220Z AUTO 19006KT 10SM CLR 08/03 A3020 RMK AO2 T00800032
KFEP 170155Z AUTO 19007KT 10SM CLR 08/04 A3021 RMK AO2 T00810035
KFEP 170135Z AUTO 19005KT 10SM CLR 08/03 A3021 RMK AO2 T00760034
KFEP 170115Z AUTO 18006KT 10SM CLR 08/03 A3021 RMK AO2 T00780032
KFEP 170055Z AUTO 19006KT 10SM CLR 08/03 A3021 RMK AO2 T00840030
KFEP 170035Z AUTO 20005KT 10SM CLR 08/03 A3021 RMK AO2 T00810026
KFEP 170015Z AUTO 21004KT 10SM CLR 09/03 A3021 RMK AO2 T00880025
KFEP 162355Z AUTO 22004KT 10SM CLR 11/03 A3021 RMK AO2 T01060026 10164 20106
KFEP 162335Z AUTO 22004KT 10SM CLR 12/03 A3021 RMK AO2 T01180028
KFEP 162315Z AUTO 23004KT 10SM CLR 13/02 A3022 RMK AO2 T01300024
KFEP 162255Z AUTO 25005KT 10SM CLR 15/02 A3022 RMK AO2 T01480020
KFEP 162235Z AUTO 25006KT 10SM CLR 16/02 A3022 RMK AO2 T01550021
KFEP 162215Z AUTO 26006KT 10SM CLR 16/02 A3022 RMK AO2 T01580019
KFEP 162155Z AUTO 24009G14KT 10SM CLR 16/02 A3022 RMK AO2 T01600017
KFEP 162135Z AUTO 24008KT 10SM CLR 16/02 A3022 RMK AO2 T01610015
KFEP 162115Z AUTO 25007KT 10SM CLR 16/02 A3024 RMK AO2 T01630017
KFEP 162055Z AUTO 27006KT 10SM CLR 16/01 A3024 RMK AO2 T01610011
KFEP 162035Z AUTO 25008KT 10SM CLR 16/01 A3025 RMK AO2 T01600005
KFEP 162015Z AUTO 22008KT 10SM CLR 16/01 A3025 RMK AO2 T01600006
KFEP 161955Z AUTO 26011G14KT 10SM CLR 16/00 A3026 RMK AO2 T01620002
KFEP 161935Z AUTO 24009KT 10SM CLR 16/01 A3026 RMK AO2 T01640007
KFEP 161915Z AUTO 24009KT 10SM CLR 16/00 A3027 RMK AO2 T01560000
KFEP 161855Z AUTO 28010G15KT 10SM CLR 16/00 A3028 RMK AO2 T01560000
KFEP 161835Z AUTO 22004G10KT 10SM CLR 15/00 A3029 RMK AO2 T01500002
KFEP 161815Z AUTO 28011KT 10SM CLR 15/01 A3030 RMK AO2 T01530011
KFEP 161755Z AUTO 27009KT 10SM CLR 15/02 A3031 RMK AO2 T01540016 10154 20031
KFEP 161735Z AUTO 28007KT 10SM CLR 15/02 A3032 RMK AO2 T01480021
KFEP 161715Z AUTO 26007KT 10SM CLR 14/02 A3033 RMK AO2 T01430019
KFEP 161655Z AUTO 30007KT 10SM CLR 14/02 A3033 RMK AO2 T01390023
KFEP 161635Z AUTO 28008KT 10SM CLR 13/03 A3032 RMK AO2 T01320032
KFEP 161615Z AUTO 22003KT 10SM CLR 12/04 A3032 RMK AO2 T01200043
KFEP 161555Z AUTO 28003KT 10SM CLR 11/04 A3033 RMK AO2 T01090044